createdAt,value
2023-04-12T00:00:42.255Z,95.87
2023-04-12T00:01:42.304Z,96.19
2023-04-12T00:02:42.520Z,95.98
2023-04-12T00:03:42.330Z,96.19
2023-04-12T00:04:42.577Z,95.87
2023-04-12T00:05:42.194Z,96.08
2023-04-12T00:06:42.209Z,96.08
2023-04-12T00:07:42.178Z,95.98
2023-04-12T00:08:42.160Z,95.87
2023-04-12T00:09:42.154Z,96.19
2023-04-12T00:10:42.136Z,96.19
2023-04-12T00:11:42.153Z,96.08
2023-04-12T00:12:42.141Z,95.87
2023-04-12T00:13:42.101Z,95.56
2023-04-12T00:14:42.109Z,95.76
2023-04-12T00:15:42.118Z,95.92
2023-04-12T00:16:42.100Z,95.81
2023-04-12T00:17:42.142Z,95.87
2023-04-12T00:18:42.053Z,95.66
2023-04-12T00:19:42.077Z,95.76
2023-04-12T00:20:42.028Z,95.81
2023-04-12T00:21:42.016Z,96.12
2023-04-12T00:22:42.019Z,95.70
2023-04-12T00:23:41.993Z,95.81
2023-04-12T00:24:41.992Z,95.60
2023-04-12T00:25:41.996Z,95.92
2023-04-12T00:26:41.986Z,95.60
2023-04-12T00:27:41.947Z,95.92
2023-04-12T00:28:41.936Z,95.92
2023-04-12T00:29:41.927Z,95.29
2023-04-12T00:30:41.938Z,95.50
2023-04-12T00:31:42.048Z,95.70
2023-04-12T00:32:41.936Z,95.64
2023-04-12T00:33:41.909Z,95.92
2023-04-12T00:34:41.890Z,95.64
2023-04-12T00:35:50.945Z,95.81
2023-04-12T00:36:49.535Z,96.06
2023-04-12T00:37:50.841Z,95.39
2023-04-12T00:38:41.835Z,95.43
2023-04-12T00:39:41.831Z,95.54
2023-04-12T00:40:41.815Z,95.75
2023-04-12T00:41:41.796Z,96.17
2023-04-12T00:42:41.779Z,95.33
2023-04-12T00:43:41.834Z,95.64
2023-04-12T00:44:41.805Z,95.54
2023-04-12T00:45:41.747Z,95.43
2023-04-12T00:46:41.791Z,95.96
2023-04-12T00:47:41.744Z,95.86
2023-04-12T00:48:41.733Z,95.58
2023-04-12T00:49:41.750Z,95.54
2023-04-12T00:50:41.706Z,95.75
2023-04-12T00:51:41.678Z,95.96
2023-04-12T00:52:41.693Z,95.86
2023-04-12T00:53:41.670Z,95.90
2023-04-12T00:54:41.643Z,95.86
2023-04-12T00:55:41.672Z,95.58
2023-04-12T00:56:41.636Z,95.90
2023-04-12T00:57:41.695Z,95.79
2023-04-12T00:58:41.606Z,95.84
2023-04-12T00:59:41.592Z,96.00
2023-04-12T01:00:41.605Z,96.11
2023-04-12T01:01:42.902Z,95.79
2023-04-12T01:02:41.762Z,95.90
2023-04-12T01:03:41.633Z,95.79
2023-04-12T01:04:41.530Z,95.79
2023-04-12T01:05:41.540Z,95.79
2023-04-12T01:06:41.507Z,95.68
2023-04-12T01:07:41.544Z,95.62
2023-04-12T01:08:41.523Z,96.04
2023-04-12T01:09:41.474Z,95.90
2023-04-12T01:10:41.460Z,95.79
2023-04-12T01:11:41.481Z,95.62
2023-04-12T01:12:41.443Z,95.58
2023-04-12T01:13:41.439Z,95.68
2023-04-12T01:14:41.417Z,95.94
2023-04-12T01:15:41.405Z,95.90
2023-04-12T01:16:41.452Z,95.79
2023-04-12T01:17:41.439Z,95.84
2023-04-12T01:18:41.372Z,96.04
2023-04-12T01:19:41.389Z,95.62
2023-04-12T01:20:41.356Z,95.94
2023-04-12T01:21:41.371Z,95.84
2023-04-12T01:22:41.352Z,96.04
2023-04-12T01:23:41.320Z,96.04
2023-04-12T01:24:41.323Z,96.04
2023-04-12T01:25:41.306Z,95.94
2023-04-12T01:26:41.305Z,95.94
2023-04-12T01:27:41.321Z,96.04
2023-04-12T01:28:41.268Z,95.94
2023-04-12T01:29:41.250Z,96.25
2023-04-12T01:30:41.236Z,95.84
2023-04-12T01:31:41.302Z,96.25
2023-04-12T01:32:41.290Z,95.84
2023-04-12T01:33:41.200Z,95.42
2023-04-12T01:34:41.194Z,95.84
2023-04-12T01:35:41.250Z,96.19
2023-04-12T01:36:41.167Z,95.94
2023-04-12T01:37:41.178Z,96.36
2023-04-12T01:38:41.146Z,95.67
2023-04-12T01:39:41.138Z,95.67
2023-04-12T01:40:41.144Z,95.46
2023-04-12T01:41:41.131Z,95.73
2023-04-12T01:42:41.110Z,96.19
2023-04-12T01:43:41.126Z,95.98
2023-04-12T01:44:41.097Z,95.94
2023-04-12T01:45:41.383Z,95.56
2023-04-12T01:46:41.076Z,95.84
2023-04-12T01:47:41.176Z,95.84
2023-04-12T01:48:41.046Z,95.78
2023-04-12T01:49:41.033Z,95.94
2023-04-12T01:50:41.036Z,95.78
2023-04-12T01:51:41.024Z,95.78
2023-04-12T01:52:40.994Z,95.98
2023-04-12T01:53:41.000Z,95.88
2023-04-12T01:54:40.969Z,95.67
2023-04-12T01:55:41.069Z,95.98
2023-04-12T01:56:40.964Z,95.98
2023-04-12T01:57:40.934Z,95.56
2023-04-12T01:58:40.944Z,95.56
2023-04-12T01:59:40.927Z,96.09
2023-04-12T02:00:40.917Z,95.98
2023-04-12T02:01:40.968Z,95.46
2023-04-12T02:02:40.982Z,95.67
2023-04-12T02:03:40.987Z,95.46
2023-04-12T02:04:40.869Z,95.67
2023-04-12T02:05:41.002Z,95.56
2023-04-12T02:06:40.848Z,96.09
2023-04-12T02:07:40.843Z,96.09
2023-04-12T02:08:40.810Z,95.56
2023-04-12T02:09:40.835Z,95.61
2023-04-12T02:10:40.799Z,95.92
2023-04-12T02:11:40.785Z,95.15
2023-04-12T02:12:40.776Z,95.61
2023-04-12T02:13:40.766Z,95.40
2023-04-12T02:14:40.767Z,95.61
2023-04-12T02:15:40.737Z,95.61
2023-04-12T02:16:40.772Z,96.13
2023-04-12T02:17:40.717Z,95.88
2023-04-12T02:18:40.709Z,96.19
2023-04-12T02:19:40.717Z,95.88
2023-04-12T02:20:40.677Z,96.41
2023-04-12T02:21:40.664Z,96.45
2023-04-12T02:22:40.650Z,95.98
2023-04-12T02:23:40.664Z,95.88
2023-04-12T02:24:40.636Z,95.92
2023-04-12T02:25:40.633Z,96.03
2023-04-12T02:26:40.629Z,96.34
2023-04-12T02:27:40.597Z,95.61
2023-04-12T02:28:40.586Z,95.82
2023-04-12T02:29:40.572Z,95.50
2023-04-12T02:30:40.598Z,95.61
2023-04-12T02:31:40.552Z,95.61
2023-04-12T02:32:40.567Z,95.72
2023-04-12T02:33:40.531Z,95.61
2023-04-12T02:34:40.519Z,95.50
2023-04-12T02:35:40.543Z,95.50
2023-04-12T02:36:40.571Z,95.65
2023-04-12T02:37:40.483Z,95.92
2023-04-12T02:38:40.474Z,96.34
2023-04-12T02:39:40.483Z,95.97
2023-04-12T02:40:40.454Z,95.72
2023-04-12T02:41:40.465Z,95.40
2023-04-12T02:42:40.635Z,95.08
2023-04-12T02:43:40.418Z,94.98
2023-04-12T02:44:40.431Z,94.77
2023-04-12T02:45:40.421Z,95.44
2023-04-12T02:46:40.385Z,95.92
2023-04-12T02:47:40.438Z,96.07
2023-04-12T02:48:40.373Z,95.76
2023-04-12T02:49:40.365Z,95.65
2023-04-12T02:50:40.431Z,95.76
2023-04-12T02:51:40.330Z,95.76
2023-04-12T02:52:40.351Z,95.61
2023-04-12T02:53:40.305Z,95.72
2023-04-12T02:54:40.310Z,96.49
2023-04-12T02:55:40.299Z,96.18
2023-04-12T02:56:40.374Z,95.97
2023-04-12T02:57:40.276Z,96.07
2023-04-12T02:58:40.249Z,96.28
2023-04-12T02:59:40.257Z,96.07
2023-04-12T03:00:40.235Z,96.39
2023-04-12T03:01:40.339Z,96.18
2023-04-12T03:02:40.359Z,95.97
2023-04-12T03:03:40.350Z,95.97
2023-04-12T03:04:40.264Z,96.28
2023-04-12T03:05:40.188Z,95.65
2023-04-12T03:06:40.162Z,95.65
2023-04-12T03:07:40.155Z,95.65
2023-04-12T03:08:40.151Z,95.97
2023-04-12T03:09:40.122Z,95.65
2023-04-12T03:10:40.130Z,95.76
2023-04-12T03:11:40.114Z,95.72
2023-04-12T03:12:40.183Z,95.97
2023-04-12T03:13:40.098Z,96.13
2023-04-12T03:14:40.079Z,95.76
2023-04-12T03:15:40.131Z,95.54
2023-04-12T03:16:40.048Z,95.54
2023-04-12T03:17:40.093Z,95.65
2023-04-12T03:18:40.023Z,95.65
2023-04-12T03:19:40.017Z,95.86
2023-04-12T03:20:40.044Z,95.76
2023-04-12T03:21:39.999Z,95.65
2023-04-12T03:22:39.977Z,95.34
2023-04-12T03:23:39.965Z,95.34
2023-04-12T03:24:39.954Z,95.34
2023-04-12T03:25:40.075Z,95.70
2023-04-12T03:26:39.953Z,95.76
2023-04-12T03:27:39.964Z,95.86
2023-04-12T03:28:39.911Z,94.96
2023-04-12T03:29:39.912Z,95.38
2023-04-12T03:30:39.906Z,95.28
2023-04-12T03:31:39.918Z,95.06
2023-04-12T03:32:40.005Z,94.75
2023-04-12T03:33:39.878Z,94.75
2023-04-12T03:34:39.849Z,94.96
2023-04-12T03:35:39.870Z,94.96
2023-04-12T03:36:39.820Z,95.28
2023-04-12T03:37:39.806Z,95.28
2023-04-12T03:38:39.823Z,95.06
2023-04-12T03:39:39.795Z,94.85
2023-04-12T03:40:39.787Z,94.85
2023-04-12T03:41:39.781Z,94.75
2023-04-12T03:42:39.752Z,95.28
2023-04-12T03:43:39.760Z,95.28
2023-04-12T03:44:39.757Z,95.06
2023-04-12T03:45:39.733Z,95.06
2023-04-12T03:46:39.721Z,95.17
2023-04-12T03:47:39.717Z,95.06
2023-04-12T03:48:39.706Z,95.06
2023-04-12T03:49:39.721Z,95.17
2023-04-12T03:50:39.677Z,94.75
2023-04-12T03:51:39.666Z,94.96
2023-04-12T03:52:39.658Z,94.69
2023-04-12T03:53:39.644Z,94.96
2023-04-12T03:54:39.637Z,94.75
2023-04-12T03:55:39.625Z,94.65
2023-04-12T03:56:39.602Z,94.75
2023-04-12T03:57:39.607Z,94.90
2023-04-12T03:58:39.575Z,94.69
2023-04-12T03:59:39.567Z,95.10
2023-04-12T04:00:39.556Z,94.54
2023-04-12T04:01:39.578Z,94.96
2023-04-12T04:02:39.655Z,95.38
2023-04-12T04:03:39.710Z,95.70
2023-04-12T04:04:39.545Z,95.28
2023-04-12T04:05:39.492Z,95.90
2023-04-12T04:06:39.512Z,95.84
2023-04-12T04:07:42.644Z,95.80
2023-04-12T04:08:39.497Z,95.38
2023-04-12T04:09:39.610Z,95.38
2023-04-12T04:10:39.474Z,95.70
2023-04-12T04:11:39.428Z,95.59
2023-04-12T04:12:39.446Z,95.28
2023-04-12T04:13:39.403Z,95.84
2023-04-12T04:14:39.415Z,95.48
2023-04-12T04:15:39.390Z,95.70
2023-04-12T04:16:39.411Z,95.17
2023-04-12T04:17:39.454Z,95.70
2023-04-12T04:18:39.379Z,95.06
2023-04-12T04:19:39.440Z,95.21
2023-04-12T04:20:39.351Z,95.28
2023-04-12T04:21:39.314Z,95.59
2023-04-12T04:22:39.306Z,95.70
2023-04-12T04:23:41.337Z,95.59
2023-04-12T04:24:39.282Z,95.76
2023-04-12T04:25:39.317Z,96.07
2023-04-12T04:26:39.298Z,96.28
2023-04-12T04:27:39.250Z,96.33
2023-04-12T04:28:39.244Z,95.86
2023-04-12T04:29:39.227Z,95.97
2023-04-12T04:30:39.240Z,96.07
2023-04-12T04:31:39.309Z,95.97
2023-04-12T04:32:39.254Z,96.07
2023-04-12T04:33:39.206Z,96.18
2023-04-12T04:34:39.173Z,96.28
2023-04-12T04:35:39.189Z,96.18
2023-04-12T04:36:39.155Z,95.86
2023-04-12T04:37:39.149Z,95.86
2023-04-12T04:38:39.184Z,95.92
2023-04-12T04:39:39.127Z,95.92
2023-04-12T04:40:39.111Z,96.03
2023-04-12T04:41:39.100Z,96.03
2023-04-12T04:42:39.090Z,96.13
2023-04-12T04:43:39.100Z,96.03
2023-04-12T04:44:39.100Z,95.82
2023-04-12T04:45:39.152Z,96.13
2023-04-12T04:46:39.039Z,96.09
2023-04-12T04:47:39.079Z,95.88
2023-04-12T04:48:39.023Z,96.09
2023-04-12T04:49:39.025Z,95.88
2023-04-12T04:50:39.012Z,96.41
2023-04-12T04:51:38.988Z,96.09
2023-04-12T04:52:38.994Z,96.47
2023-04-12T04:53:38.982Z,96.15
2023-04-12T04:54:38.952Z,96.57
2023-04-12T04:55:38.958Z,96.57
2023-04-12T04:56:38.942Z,96.04
2023-04-12T04:57:38.918Z,96.47
2023-04-12T04:58:38.953Z,96.73
2023-04-12T04:59:38.896Z,96.21
2023-04-12T05:00:38.901Z,97.05
2023-04-12T05:01:39.088Z,96.11
2023-04-12T05:02:38.952Z,96.42
2023-04-12T05:03:38.968Z,96.27
2023-04-12T05:04:38.840Z,96.90
2023-04-12T05:05:38.839Z,96.06
2023-04-12T05:06:38.833Z,97.00
2023-04-12T05:07:38.820Z,96.27
2023-04-12T05:08:38.792Z,96.69
2023-04-12T05:09:38.796Z,96.90
2023-04-12T05:10:38.771Z,96.55
2023-04-12T05:11:38.753Z,96.33
2023-04-12T05:12:38.751Z,96.33
2023-04-12T05:13:38.762Z,96.50
2023-04-12T05:14:47.150Z,96.61
2023-04-12T05:15:39.709Z,96.81
2023-04-12T05:16:38.747Z,97.34
2023-04-12T05:17:38.758Z,96.88
2023-04-12T05:18:38.705Z,96.77
2023-04-12T05:19:38.670Z,96.88
2023-04-12T05:20:38.654Z,97.25
2023-04-12T05:21:38.657Z,97.25
2023-04-12T05:22:38.632Z,97.35
2023-04-12T05:23:38.638Z,97.62
2023-04-12T05:24:38.635Z,97.31
2023-04-12T05:25:38.636Z,97.37
2023-04-12T05:26:38.593Z,97.05
2023-04-12T05:27:38.569Z,97.27
2023-04-12T05:28:38.567Z,97.43
2023-04-12T05:29:38.553Z,97.74
2023-04-12T05:30:38.614Z,97.95
2023-04-12T05:31:38.569Z,97.70
2023-04-12T05:32:38.542Z,97.28
2023-04-12T05:33:38.507Z,97.70
2023-04-12T05:34:38.500Z,97.49
2023-04-12T05:35:38.530Z,97.34
2023-04-12T05:36:38.471Z,97.44
2023-04-12T05:37:38.483Z,97.81
2023-04-12T05:38:38.465Z,97.98
2023-04-12T05:39:38.440Z,97.67
2023-04-12T05:40:38.429Z,97.83
2023-04-12T05:41:38.439Z,97.78
2023-04-12T05:42:38.409Z,97.85
2023-04-12T05:43:38.436Z,97.49
2023-04-12T05:44:38.400Z,97.03
2023-04-12T05:45:38.395Z,96.61
2023-04-12T05:46:38.460Z,96.41
2023-04-12T05:47:38.386Z,95.78
2023-04-12T05:48:38.354Z,95.42
2023-04-12T05:49:38.345Z,96.04
2023-04-12T05:50:38.321Z,95.53
2023-04-12T05:51:41.697Z,95.59
2023-04-12T05:52:38.361Z,95.79
2023-04-12T05:53:38.407Z,95.59
2023-04-12T05:54:38.274Z,95.07
2023-04-12T05:55:38.379Z,95.17
2023-04-12T05:56:38.271Z,94.30
2023-04-12T05:57:38.262Z,94.36
2023-04-12T05:58:38.237Z,93.70
2023-04-12T05:59:38.223Z,93.59
2023-04-12T06:00:40.834Z,93.07
2023-04-12T06:01:38.267Z,92.76
2023-04-12T06:02:38.326Z,92.66
2023-04-12T06:03:38.390Z,92.41
2023-04-12T06:04:49.349Z,91.58
2023-04-12T06:05:39.299Z,90.85
2023-04-12T06:06:38.138Z,89.11
2023-04-12T06:07:38.186Z,88.39
2023-04-12T06:08:38.166Z,88.24
2023-04-12T06:09:38.144Z,87.47
2023-04-12T06:10:38.100Z,87.37
2023-04-12T06:11:38.092Z,86.75
2023-04-12T06:12:38.074Z,85.92
2023-04-12T06:13:38.097Z,85.47
2023-04-12T06:14:38.091Z,86.25
2023-04-12T06:15:38.069Z,85.60
2023-04-12T06:16:39.867Z,85.86
2023-04-12T06:17:38.062Z,84.69
2023-04-12T06:18:38.000Z,84.96
2023-04-12T06:19:38.024Z,84.27
2023-04-12T06:20:37.976Z,83.29
2023-04-12T06:21:37.987Z,81.96
2023-04-12T06:22:37.965Z,82.02
2023-04-12T06:23:37.983Z,80.33
2023-04-12T06:24:37.946Z,80.91
2023-04-12T06:25:37.974Z,77.93
2023-04-12T06:26:40.084Z,78.07
2023-04-12T06:27:37.900Z,77.97
2023-04-12T06:28:37.889Z,77.97
2023-04-12T06:29:37.891Z,78.17
2023-04-12T06:30:37.918Z,78.24
2023-04-12T06:31:37.943Z,78.72
2023-04-12T06:32:37.906Z,78.10
2023-04-12T06:33:37.844Z,78.20
2023-04-12T06:34:37.830Z,76.76
2023-04-12T06:35:37.858Z,77.48
2023-04-12T06:36:37.806Z,77.86
2023-04-12T06:37:37.784Z,76.62
2023-04-12T06:38:37.790Z,76.31
2023-04-12T06:39:37.755Z,76.18
2023-04-12T06:40:37.742Z,76.48
2023-04-12T06:41:37.774Z,77.78
2023-04-12T06:42:37.889Z,75.90
2023-04-12T06:43:37.720Z,74.70
2023-04-12T06:44:37.706Z,74.66
2023-04-12T06:45:37.686Z,73.57
2023-04-12T06:46:37.763Z,72.34
2023-04-12T06:47:37.726Z,71.45
2023-04-12T06:48:37.706Z,71.66
2023-04-12T06:49:37.641Z,71.35
2023-04-12T06:50:37.634Z,70.77
2023-04-12T06:51:37.636Z,71.80
2023-04-12T06:52:37.603Z,71.86
2023-04-12T06:53:37.630Z,73.23
2023-04-12T06:54:37.603Z,73.16
2023-04-12T06:55:37.583Z,73.68
2023-04-12T06:56:37.556Z,72.75
2023-04-12T06:57:37.561Z,72.89
2023-04-12T06:58:37.555Z,73.44
2023-04-12T06:59:37.530Z,74.67
2023-04-12T07:00:37.584Z,74.12
2023-04-12T07:01:37.500Z,73.88
2023-04-12T07:02:37.591Z,72.85
2023-04-12T07:03:37.610Z,73.44
2023-04-12T07:04:37.486Z,72.58
2023-04-12T07:05:37.461Z,71.97
2023-04-12T07:06:37.451Z,73.16
2023-04-12T07:07:37.447Z,71.72
2023-04-12T07:08:37.476Z,71.39
2023-04-12T07:09:37.409Z,72.17
2023-04-12T07:10:37.423Z,69.64
2023-04-12T07:11:37.388Z,70.02
2023-04-12T07:12:37.405Z,70.64
2023-04-12T07:13:37.519Z,70.09
2023-04-12T07:14:37.372Z,69.89
2023-04-12T07:15:37.364Z,68.55
2023-04-12T07:16:37.341Z,69.27
2023-04-12T07:17:46.529Z,69.44
2023-04-12T07:18:44.516Z,69.75
2023-04-12T07:19:44.968Z,68.62
2023-04-12T07:20:45.405Z,68.04
2023-04-12T07:21:44.986Z,69.34
2023-04-12T07:22:44.477Z,68.83
2023-04-12T07:23:37.259Z,69.54
2023-04-12T07:24:37.240Z,69.37
2023-04-12T07:25:37.250Z,69.44
2023-04-12T07:26:37.207Z,69.27
2023-04-12T07:27:37.221Z,69.54
2023-04-12T07:28:37.336Z,69.24
2023-04-12T07:29:37.215Z,69.95
2023-04-12T07:30:37.184Z,70.23
2023-04-12T07:31:37.165Z,70.33
2023-04-12T07:32:37.207Z,69.82
2023-04-12T07:33:38.772Z,69.61
2023-04-12T07:34:37.257Z,70.09
2023-04-12T07:35:37.127Z,69.79
2023-04-12T07:36:37.105Z,67.23
2023-04-12T07:37:37.107Z,67.16
2023-04-12T07:38:37.089Z,67.32
2023-04-12T07:39:37.140Z,69.51
2023-04-12T07:40:37.052Z,69.23
2023-04-12T07:41:37.044Z,70.56
2023-04-12T07:42:37.223Z,71.80
2023-04-12T07:43:37.106Z,70.39
2023-04-12T07:44:38.803Z,71.45
2023-04-12T07:45:37.161Z,71.38
2023-04-12T07:46:36.980Z,71.93
2023-04-12T07:47:37.004Z,73.16
2023-04-12T07:48:36.967Z,72.96
2023-04-12T07:49:36.971Z,73.57
2023-04-12T07:50:36.959Z,73.33
2023-04-12T07:51:36.931Z,72.72
2023-04-12T07:52:36.926Z,71.55
2023-04-12T07:53:36.916Z,71.55
2023-04-12T07:54:36.910Z,72.78
2023-04-12T07:55:36.908Z,71.69
2023-04-12T07:56:36.894Z,71.79
2023-04-12T07:57:36.858Z,73.85
2023-04-12T07:58:36.847Z,73.02
2023-04-12T07:59:36.862Z,73.13
2023-04-12T08:00:36.839Z,74.84
2023-04-12T08:01:36.948Z,73.98
2023-04-12T08:02:36.910Z,72.41
2023-04-12T08:03:37.005Z,71.80
2023-04-12T08:04:36.784Z,70.05
2023-04-12T08:05:36.849Z,72.17
2023-04-12T08:06:36.753Z,71.86
2023-04-12T08:07:36.759Z,71.73
2023-04-12T08:08:36.755Z,70.70
2023-04-12T08:09:36.721Z,69.06
2023-04-12T08:10:36.726Z,69.27
2023-04-12T08:11:36.720Z,69.30
2023-04-12T08:12:36.684Z,71.25
2023-04-12T08:13:36.712Z,71.25
2023-04-12T08:14:38.082Z,69.10
2023-04-12T08:15:36.671Z,69.84
2023-04-12T08:16:36.660Z,70.77
2023-04-12T08:17:36.676Z,71.86
2023-04-12T08:18:36.667Z,71.35
2023-04-12T08:19:36.626Z,69.57
2023-04-12T08:20:36.609Z,69.20
2023-04-12T08:21:36.617Z,70.53
2023-04-12T08:22:36.569Z,69.74
2023-04-12T08:23:36.561Z,69.33
2023-04-12T08:24:36.549Z,70.18
2023-04-12T08:25:36.583Z,70.08
2023-04-12T08:26:36.546Z,70.29
2023-04-12T08:27:36.515Z,71.90
2023-04-12T08:28:38.415Z,70.22
2023-04-12T08:29:36.494Z,70.70
2023-04-12T08:30:36.481Z,71.42
2023-04-12T08:31:36.502Z,69.26
2023-04-12T08:32:36.543Z,69.70
2023-04-12T08:33:36.478Z,72.34
2023-04-12T08:34:36.436Z,71.28
2023-04-12T08:35:37.031Z,70.73
2023-04-12T08:36:36.407Z,68.17
2023-04-12T08:37:36.436Z,67.25
2023-04-12T08:38:45.461Z,68.10
2023-04-12T08:39:37.375Z,69.43
2023-04-12T08:40:36.383Z,68.82
2023-04-12T08:41:37.815Z,67.59
2023-04-12T08:42:36.342Z,68.41
2023-04-12T08:43:36.343Z,68.65
2023-04-12T08:44:36.318Z,67.72
2023-04-12T08:45:36.332Z,68.41
2023-04-12T08:46:36.323Z,67.28
2023-04-12T08:47:36.337Z,67.69
2023-04-12T08:48:36.290Z,67.79
2023-04-12T08:49:36.314Z,68.00
2023-04-12T08:50:36.285Z,69.37
2023-04-12T08:51:36.248Z,69.40
2023-04-12T08:52:36.236Z,70.53
2023-04-12T08:53:36.252Z,70.22
2023-04-12T08:54:36.224Z,70.53
2023-04-12T08:55:36.212Z,69.67
2023-04-12T08:56:36.184Z,69.47
2023-04-12T08:57:36.185Z,70.08
2023-04-12T08:58:36.161Z,69.16
2023-04-12T08:59:36.151Z,70.63
2023-04-12T09:00:36.163Z,70.39
2023-04-12T09:01:36.174Z,70.39
2023-04-12T09:02:36.323Z,70.97
2023-04-12T09:03:36.244Z,70.53
2023-04-12T09:04:36.152Z,71.52
2023-04-12T09:05:36.110Z,69.78
2023-04-12T09:06:36.081Z,69.37
2023-04-12T09:07:36.059Z,69.24
2023-04-12T09:08:36.079Z,69.34
2023-04-12T09:09:36.061Z,69.44
2023-04-12T09:10:36.028Z,70.03
2023-04-12T09:11:36.015Z,69.54
2023-04-12T09:12:36.040Z,69.20
2023-04-12T09:13:35.988Z,69.31
2023-04-12T09:14:35.979Z,67.77
2023-04-12T09:15:35.970Z,66.60
2023-04-12T09:16:36.036Z,68.51
2023-04-12T09:17:36.001Z,70.53
2023-04-12T09:18:35.949Z,69.71
2023-04-12T09:19:35.941Z,69.47
2023-04-12T09:20:35.931Z,68.86
2023-04-12T09:21:35.956Z,68.38
2023-04-12T09:22:35.893Z,69.40
2023-04-12T09:23:35.896Z,69.98
2023-04-12T09:24:35.878Z,70.50
2023-04-12T09:25:35.855Z,69.85
2023-04-12T09:26:35.842Z,69.54
2023-04-12T09:27:35.844Z,68.76
2023-04-12T09:28:35.842Z,69.81
2023-04-12T09:29:35.803Z,70.12
2023-04-12T09:30:35.815Z,71.56
2023-04-12T09:31:35.809Z,70.50
2023-04-12T09:32:35.790Z,69.37
2023-04-12T09:33:35.792Z,69.27
2023-04-12T09:34:35.753Z,69.98
2023-04-12T09:35:35.867Z,69.68
2023-04-12T09:36:35.745Z,69.57
2023-04-12T09:37:35.736Z,70.60
2023-04-12T09:38:35.739Z,70.09
2023-04-12T09:39:35.729Z,70.81
2023-04-12T09:40:35.714Z,70.16
2023-04-12T09:41:35.680Z,70.16
2023-04-12T09:42:35.663Z,69.95
2023-04-12T09:43:35.645Z,70.77
2023-04-12T09:44:35.689Z,71.32
2023-04-12T09:45:35.633Z,70.70
2023-04-12T09:46:35.639Z,72.96
2023-04-12T09:47:35.614Z,72.14
2023-04-12T09:48:35.595Z,72.20
2023-04-12T09:49:35.607Z,71.08
2023-04-12T09:50:35.559Z,72.20
2023-04-12T09:51:35.551Z,71.36
2023-04-12T09:52:35.542Z,71.25
2023-04-12T09:53:35.553Z,70.74
2023-04-12T09:54:35.569Z,70.71
2023-04-12T09:55:35.510Z,71.42
2023-04-12T09:56:35.495Z,70.47
2023-04-12T09:57:35.502Z,69.58
2023-04-12T09:58:35.469Z,70.53
2023-04-12T09:59:35.474Z,71.15
2023-04-12T10:00:35.502Z,71.66
2023-04-12T10:01:35.493Z,70.40
2023-04-12T10:02:35.580Z,69.48
2023-04-12T10:03:35.474Z,69.92
2023-04-12T10:04:35.457Z,71.69
2023-04-12T10:05:35.728Z,70.94
2023-04-12T10:06:35.397Z,70.53
2023-04-12T10:07:35.403Z,71.45
2023-04-12T10:08:35.367Z,72.75
2023-04-12T10:09:35.453Z,72.24
2023-04-12T10:10:35.371Z,70.67
2023-04-12T10:11:35.327Z,69.68
2023-04-12T10:12:35.323Z,71.53
2023-04-12T10:13:35.310Z,70.50
2023-04-12T10:14:35.299Z,70.84
2023-04-12T10:15:35.289Z,69.41
2023-04-12T10:16:35.409Z,71.39
2023-04-12T10:17:35.280Z,72.31
2023-04-12T10:18:35.256Z,72.28
2023-04-12T10:19:35.248Z,71.36
2023-04-12T10:20:35.214Z,71.42
2023-04-12T10:21:35.227Z,71.12
2023-04-12T10:22:35.234Z,70.94
2023-04-12T10:23:35.177Z,70.74
2023-04-12T10:24:35.202Z,71.25
2023-04-12T10:25:35.202Z,71.28
2023-04-12T10:26:35.141Z,72.58
2023-04-12T10:27:35.150Z,71.42
2023-04-12T10:28:35.147Z,69.58
2023-04-12T10:29:35.109Z,70.91
2023-04-12T10:30:35.155Z,71.22
2023-04-12T10:31:35.160Z,70.71
2023-04-12T10:32:35.606Z,70.81
2023-04-12T10:33:35.093Z,70.26
2023-04-12T10:34:35.113Z,69.96
2023-04-12T10:35:35.059Z,69.55
2023-04-12T10:36:35.254Z,70.26
2023-04-12T10:37:35.023Z,69.85
2023-04-12T10:38:36.262Z,70.98
2023-04-12T10:39:35.031Z,72.31
2023-04-12T10:40:34.999Z,69.75
2023-04-12T10:41:35.048Z,70.75
2023-04-12T10:42:34.980Z,69.72
2023-04-12T10:43:34.973Z,69.24
2023-04-12T10:44:34.941Z,69.96
2023-04-12T10:45:34.948Z,71.49
2023-04-12T10:46:35.018Z,70.67
2023-04-12T10:47:34.982Z,70.37
2023-04-12T10:48:34.960Z,69.79
2023-04-12T10:49:34.908Z,71.36
2023-04-12T10:50:34.890Z,70.57
2023-04-12T10:51:34.868Z,71.15
2023-04-12T10:52:34.877Z,70.53
2023-04-12T10:53:34.861Z,69.54
2023-04-12T10:54:34.828Z,72.14
2023-04-12T10:55:34.854Z,72.89
2023-04-12T10:56:34.802Z,73.61
2023-04-12T10:57:34.854Z,73.78
2023-04-12T10:58:34.847Z,73.68
2023-04-12T10:59:46.993Z,73.03
2023-04-12T11:00:35.828Z,72.52
2023-04-12T11:01:38.407Z,72.11
2023-04-12T11:02:34.959Z,72.89
2023-04-12T11:03:34.944Z,72.28
2023-04-12T11:04:34.947Z,72.48
2023-04-12T11:05:34.862Z,71.56
2023-04-12T11:06:34.705Z,70.84
2023-04-12T11:07:34.691Z,71.25
2023-04-12T11:08:34.691Z,71.32
2023-04-12T11:09:34.687Z,72.38
2023-04-12T11:10:34.668Z,71.97
2023-04-12T11:11:34.665Z,71.45
2023-04-12T11:12:34.620Z,71.59
2023-04-12T11:13:34.627Z,70.77
2023-04-12T11:14:34.607Z,72.31
2023-04-12T11:15:34.601Z,72.52
2023-04-12T11:16:34.677Z,71.59
2023-04-12T11:17:37.667Z,72.11
2023-04-12T11:18:34.609Z,69.65
2023-04-12T11:19:34.548Z,71.18
2023-04-12T11:20:34.518Z,72.00
2023-04-12T11:21:34.525Z,71.42
2023-04-12T11:22:34.531Z,71.18
2023-04-12T11:23:34.499Z,69.75
2023-04-12T11:24:34.537Z,70.29
2023-04-12T11:25:34.507Z,70.87
2023-04-12T11:26:34.454Z,71.08
2023-04-12T11:27:34.445Z,71.80
2023-04-12T11:28:35.538Z,72.07
2023-04-12T11:29:34.456Z,72.69
2023-04-12T11:30:34.429Z,72.45
2023-04-12T11:31:34.445Z,69.34
2023-04-12T11:32:34.418Z,66.51
2023-04-12T11:33:34.369Z,67.29
2023-04-12T11:34:34.383Z,69.34
2023-04-12T11:35:34.389Z,69.27
2023-04-12T11:36:34.349Z,67.97
2023-04-12T11:37:34.358Z,70.50
2023-04-12T11:38:34.322Z,69.55
2023-04-12T11:39:34.325Z,67.40
2023-04-12T11:40:34.312Z,67.91
2023-04-12T11:41:34.278Z,67.10
2023-04-12T11:42:34.305Z,68.25
2023-04-12T11:43:34.256Z,69.45
2023-04-12T11:44:52.059Z,69.21
2023-04-12T11:45:35.250Z,69.07
2023-04-12T11:46:34.255Z,67.24
2023-04-12T11:47:34.220Z,69.24
2023-04-12T11:48:34.223Z,67.18
2023-04-12T11:49:34.225Z,66.42
2023-04-12T11:50:34.198Z,66.74
2023-04-12T11:51:34.168Z,65.51
2023-04-12T11:52:34.154Z,67.35
2023-04-12T11:53:34.141Z,65.74
2023-04-12T11:54:34.164Z,67.35
2023-04-12T11:55:34.116Z,66.91
2023-04-12T11:56:34.133Z,65.58
2023-04-12T11:57:34.096Z,65.28
2023-04-12T11:58:34.090Z,65.68
2023-04-12T11:59:34.072Z,65.07
2023-04-12T12:00:34.073Z,65.99
2023-04-12T12:01:34.087Z,66.74
2023-04-12T12:02:43.053Z,65.41
2023-04-12T12:03:35.369Z,66.28
2023-04-12T12:04:34.509Z,67.10
2023-04-12T12:05:34.297Z,65.67
2023-04-12T12:06:34.261Z,66.83
2023-04-12T12:07:34.091Z,67.03
2023-04-12T12:08:33.991Z,67.16
2023-04-12T12:09:33.971Z,68.97
2023-04-12T12:10:46.357Z,68.12
2023-04-12T12:11:34.930Z,69.21
2023-04-12T12:12:33.949Z,69.42
2023-04-12T12:13:33.928Z,69.18
2023-04-12T12:14:33.897Z,68.06
2023-04-12T12:15:33.969Z,67.55
2023-04-12T12:16:33.913Z,70.07
2023-04-12T12:17:33.906Z,66.22
2023-04-12T12:18:33.868Z,66.83
2023-04-12T12:19:33.874Z,66.94
2023-04-12T12:20:33.851Z,67.58
2023-04-12T12:21:33.819Z,67.38
2023-04-12T12:22:33.805Z,68.40
2023-04-12T12:23:33.820Z,69.15
2023-04-12T12:24:35.951Z,68.12
2023-04-12T12:25:33.779Z,68.43
2023-04-12T12:26:33.759Z,69.04
2023-04-12T12:27:33.880Z,67.54
2023-04-12T12:28:33.757Z,67.95
2023-04-12T12:29:33.721Z,69.59
2023-04-12T12:30:33.749Z,68.97
2023-04-12T12:31:33.736Z,70.13
2023-04-12T12:32:33.717Z,70.10
2023-04-12T12:33:45.697Z,69.79
2023-04-12T12:34:34.688Z,70.20
2023-04-12T12:35:33.705Z,69.59
2023-04-12T12:36:33.752Z,69.72
2023-04-12T12:37:33.632Z,71.33
2023-04-12T12:38:34.442Z,71.42
2023-04-12T12:39:33.610Z,71.12
2023-04-12T12:40:33.624Z,69.72
2023-04-12T12:41:33.588Z,70.47
2023-04-12T12:42:33.603Z,71.45
2023-04-12T12:43:33.572Z,72.11
2023-04-12T12:44:35.551Z,73.54
2023-04-12T12:45:33.539Z,72.31
2023-04-12T12:46:50.751Z,72.00
2023-04-12T12:47:34.557Z,72.61
2023-04-12T12:48:33.577Z,73.74
2023-04-12T12:49:33.519Z,73.50
2023-04-12T12:50:33.493Z,73.54
2023-04-12T12:51:33.495Z,72.92
2023-04-12T12:52:33.465Z,74.32